sensor_id;sensor_type;location;lat;lon;timestamp;P1;durP1;ratioP1;P2;durP2;ratioP2
12296;SDS011;6211;49.124;9.152;2023-07-22T00:02:20;2.58;;;1.95;;
12296;SDS011;6211;49.124;9.152;2023-07-22T00:04:47;3.85;;;1.90;;
12296;SDS011;6211;49.124;9.152;2023-07-22T00:07:15;2.90;;;2.35;;
12296;SDS011;6211;49.124;9.152;2023-07-22T00:09:43;2.42;;;2.15;;
12296;SDS011;6211;49.124;9.152;2023-07-22T00:12:10;3.65;;;2.40;;
12296;SDS011;6211;49.124;9.152;2023-07-22T00:14:39;2.72;;;2.40;;
12296;SDS011;6211;49.124;9.152;2023-07-22T00:17:06;3.00;;;2.35;;
12296;SDS011;6211;49.124;9.152;2023-07-22T00:19:34;2.65;;;2.45;;
12296;SDS011;6211;49.124;9.152;2023-07-22T00:22:01;2.40;;;2.20;;
12296;SDS011;6211;49.124;9.152;2023-07-22T00:24:28;3.45;;;2.13;;
12296;SDS011;6211;49.124;9.152;2023-07-22T00:26:57;2.47;;;2.15;;
12296;SDS011;6211;49.124;9.152;2023-07-22T00:29:24;4.03;;;2.50;;
12296;SDS011;6211;49.124;9.152;2023-07-22T00:31:51;2.70;;;2.30;;
12296;SDS011;6211;49.124;9.152;2023-07-22T00:34:18;2.58;;;2.28;;
12296;SDS011;6211;49.124;9.152;2023-07-22T00:36:45;2.45;;;2.13;;
12296;SDS011;6211;49.124;9.152;2023-07-22T00:39:13;2.72;;;2.47;;
12296;SDS011;6211;49.124;9.152;2023-07-22T00:41:40;5.30;;;2.22;;
12296;SDS011;6211;49.124;9.152;2023-07-22T00:44:10;2.80;;;2.03;;
12296;SDS011;6211;49.124;9.152;2023-07-22T00:46:38;2.55;;;1.90;;
12296;SDS011;6211;49.124;9.152;2023-07-22T00:49:06;2.47;;;2.20;;
12296;SDS011;6211;49.124;9.152;2023-07-22T00:51:33;3.35;;;2.03;;
12296;SDS011;6211;49.124;9.152;2023-07-22T00:54:01;3.03;;;2.70;;
12296;SDS011;6211;49.124;9.152;2023-07-22T00:56:29;3.28;;;2.80;;
12296;SDS011;6211;49.124;9.152;2023-07-22T00:58:57;3.20;;;2.78;;
12296;SDS011;6211;49.124;9.152;2023-07-22T01:01:27;2.95;;;2.65;;
12296;SDS011;6211;49.124;9.152;2023-07-22T01:03:54;3.55;;;2.78;;
12296;SDS011;6211;49.124;9.152;2023-07-22T01:06:21;3.13;;;2.75;;
12296;SDS011;6211;49.124;9.152;2023-07-22T01:08:49;3.05;;;2.67;;
12296;SDS011;6211;49.124;9.152;2023-07-22T01:11:16;3.67;;;2.97;;
12296;SDS011;6211;49.124;9.152;2023-07-22T01:13:43;3.88;;;3.00;;
12296;SDS011;6211;49.124;9.152;2023-07-22T01:16:10;4.35;;;2.92;;
12296;SDS011;6211;49.124;9.152;2023-07-22T01:18:39;3.58;;;2.88;;
12296;SDS011;6211;49.124;9.152;2023-07-22T01:21:07;5.72;;;3.50;;
12296;SDS011;6211;49.124;9.152;2023-07-22T01:23:36;4.70;;;3.13;;
12296;SDS011;6211;49.124;9.152;2023-07-22T01:26:04;4.90;;;3.03;;
12296;SDS011;6211;49.124;9.152;2023-07-22T01:28:34;3.38;;;2.85;;
12296;SDS011;6211;49.124;9.152;2023-07-22T01:31:01;3.92;;;2.90;;
12296;SDS011;6211;49.124;9.152;2023-07-22T01:33:30;3.80;;;2.67;;
12296;SDS011;6211;49.124;9.152;2023-07-22T01:35:57;3.40;;;2.80;;
12296;SDS011;6211;49.124;9.152;2023-07-22T01:38:24;4.47;;;2.78;;
12296;SDS011;6211;49.124;9.152;2023-07-22T01:40:52;4.15;;;2.72;;
12296;SDS011;6211;49.124;9.152;2023-07-22T01:43:20;2.97;;;2.67;;
12296;SDS011;6211;49.124;9.152;2023-07-22T01:45:47;3.25;;;2.70;;
12296;SDS011;6211;49.124;9.152;2023-07-22T01:48:14;3.75;;;3.00;;
12296;SDS011;6211;49.124;9.152;2023-07-22T01:50:41;2.90;;;2.53;;
12296;SDS011;6211;49.124;9.152;2023-07-22T01:53:08;4.30;;;2.70;;
12296;SDS011;6211;49.124;9.152;2023-07-22T01:55:35;4.53;;;3.50;;
12296;SDS011;6211;49.124;9.152;2023-07-22T01:58:04;3.78;;;3.03;;
12296;SDS011;6211;49.124;9.152;2023-07-22T02:00:31;3.53;;;3.05;;
12296;SDS011;6211;49.124;9.152;2023-07-22T02:02:58;4.22;;;3.65;;
12296;SDS011;6211;49.124;9.152;2023-07-22T02:05:25;3.50;;;3.05;;
12296;SDS011;6211;49.124;9.152;2023-07-22T02:07:54;3.80;;;2.45;;
12296;SDS011;6211;49.124;9.152;2023-07-22T02:10:21;3.60;;;2.60;;
12296;SDS011;6211;49.124;9.152;2023-07-22T02:12:49;4.90;;;2.63;;
12296;SDS011;6211;49.124;9.152;2023-07-22T02:15:18;2.33;;;2.13;;
12296;SDS011;6211;49.124;9.152;2023-07-22T02:17:47;4.85;;;3.03;;
12296;SDS011;6211;49.124;9.152;2023-07-22T02:20:14;5.65;;;2.50;;
12296;SDS011;6211;49.124;9.152;2023-07-22T02:22:42;2.78;;;2.33;;
12296;SDS011;6211;49.124;9.152;2023-07-22T02:25:09;3.00;;;2.70;;
12296;SDS011;6211;49.124;9.152;2023-07-22T02:27:36;2.90;;;2.58;;
12296;SDS011;6211;49.124;9.152;2023-07-22T02:30:05;3.03;;;2.40;;
12296;SDS011;6211;49.124;9.152;2023-07-22T02:32:36;2.95;;;2.42;;
12296;SDS011;6211;49.124;9.152;2023-07-22T02:35:04;2.20;;;2.00;;
12296;SDS011;6211;49.124;9.152;2023-07-22T02:37:31;2.75;;;2.45;;
12296;SDS011;6211;49.124;9.152;2023-07-22T02:39:59;2.35;;;2.13;;
12296;SDS011;6211;49.124;9.152;2023-07-22T02:42:26;4.18;;;2.33;;
12296;SDS011;6211;49.124;9.152;2023-07-22T02:44:53;3.45;;;2.72;;
12296;SDS011;6211;49.124;9.152;2023-07-22T02:47:20;3.42;;;2.38;;
12296;SDS011;6211;49.124;9.152;2023-07-22T02:49:48;4.60;;;2.38;;
12296;SDS011;6211;49.124;9.152;2023-07-22T02:52:15;2.95;;;2.45;;
12296;SDS011;6211;49.124;9.152;2023-07-22T02:54:43;5.45;;;2.65;;
12296;SDS011;6211;49.124;9.152;2023-07-22T02:57:30;4.50;;;2.20;;
12296;SDS011;6211;49.124;9.152;2023-07-22T02:59:57;3.58;;;2.83;;
12296;SDS011;6211;49.124;9.152;2023-07-22T03:02:24;3.72;;;2.85;;
12296;SDS011;6211;49.124;9.152;2023-07-22T03:04:53;3.08;;;2.60;;
12296;SDS011;6211;49.124;9.152;2023-07-22T03:07:21;5.88;;;2.67;;
12296;SDS011;6211;49.124;9.152;2023-07-22T03:09:48;5.18;;;2.60;;
12296;SDS011;6211;49.124;9.152;2023-07-22T03:12:15;3.28;;;2.42;;
12296;SDS011;6211;49.124;9.152;2023-07-22T03:14:42;3.83;;;2.50;;
12296;SDS011;6211;49.124;9.152;2023-07-22T03:17:10;4.82;;;2.50;;
12296;SDS011;6211;49.124;9.152;2023-07-22T03:19:39;6.47;;;2.58;;
12296;SDS011;6211;49.124;9.152;2023-07-22T03:22:07;3.95;;;2.58;;
12296;SDS011;6211;49.124;9.152;2023-07-22T03:24:35;4.00;;;2.65;;
12296;SDS011;6211;49.124;9.152;2023-07-22T03:27:02;3.67;;;2.65;;
12296;SDS011;6211;49.124;9.152;2023-07-22T03:29:29;2.97;;;2.45;;
12296;SDS011;6211;49.124;9.152;2023-07-22T03:31:56;4.45;;;3.10;;
12296;SDS011;6211;49.124;9.152;2023-07-22T03:34:25;5.38;;;3.13;;
12296;SDS011;6211;49.124;9.152;2023-07-22T03:36:52;6.07;;;2.67;;
12296;SDS011;6211;49.124;9.152;2023-07-22T03:39:21;4.50;;;3.10;;
12296;SDS011;6211;49.124;9.152;2023-07-22T03:41:48;3.33;;;2.83;;
12296;SDS011;6211;49.124;9.152;2023-07-22T03:44:15;7.35;;;3.03;;
12296;SDS011;6211;49.124;9.152;2023-07-22T03:46:42;3.20;;;2.90;;
12296;SDS011;6211;49.124;9.152;2023-07-22T03:49:09;3.15;;;2.25;;
12296;SDS011;6211;49.124;9.152;2023-07-22T03:51:36;3.10;;;2.53;;
12296;SDS011;6211;49.124;9.152;2023-07-22T03:54:03;3.25;;;2.47;;
12296;SDS011;6211;49.124;9.152;2023-07-22T03:56:32;4.90;;;2.90;;
12296;SDS011;6211;49.124;9.152;2023-07-22T03:58:59;3.47;;;3.00;;
12296;SDS011;6211;49.124;9.152;2023-07-22T04:01:26;4.95;;;2.92;;
12296;SDS011;6211;49.124;9.152;2023-07-22T04:03:53;4.18;;;3.35;;
12296;SDS011;6211;49.124;9.152;2023-07-22T04:06:20;3.70;;;2.97;;
12296;SDS011;6211;49.124;9.152;2023-07-22T04:08:47;4.72;;;3.45;;
12296;SDS011;6211;49.124;9.152;2023-07-22T04:11:15;3.45;;;3.15;;
12296;SDS011;6211;49.124;9.152;2023-07-22T04:13:43;7.90;;;2.65;;
12296;SDS011;6211;49.124;9.152;2023-07-22T04:16:10;2.72;;;2.50;;
12296;SDS011;6211;49.124;9.152;2023-07-22T04:18:37;4.82;;;3.17;;
12296;SDS011;6211;49.124;9.152;2023-07-22T04:21:04;3.40;;;2.97;;
12296;SDS011;6211;49.124;9.152;2023-07-22T04:23:31;3.83;;;2.90;;
12296;SDS011;6211;49.124;9.152;2023-07-22T04:26:01;3.15;;;2.85;;
12296;SDS011;6211;49.124;9.152;2023-07-22T04:28:29;5.28;;;3.17;;
12296;SDS011;6211;49.124;9.152;2023-07-22T04:30:58;3.00;;;2.70;;
12296;SDS011;6211;49.124;9.152;2023-07-22T04:33:25;6.78;;;3.00;;
12296;SDS011;6211;49.124;9.152;2023-07-22T04:35:53;4.20;;;2.88;;
12296;SDS011;6211;49.124;9.152;2023-07-22T04:38:20;2.63;;;2.42;;
12296;SDS011;6211;49.124;9.152;2023-07-22T04:40:47;3.28;;;2.85;;
12296;SDS011;6211;49.124;9.152;2023-07-22T04:43:15;4.75;;;3.10;;
12296;SDS011;6211;49.124;9.152;2023-07-22T04:45:43;4.32;;;3.15;;
12296;SDS011;6211;49.124;9.152;2023-07-22T04:48:14;3.05;;;2.67;;
12296;SDS011;6211;49.124;9.152;2023-07-22T04:50:42;3.83;;;2.90;;
12296;SDS011;6211;49.124;9.152;2023-07-22T04:53:10;2.85;;;2.63;;
12296;SDS011;6211;49.124;9.152;2023-07-22T04:55:38;3.97;;;2.92;;
12296;SDS011;6211;49.124;9.152;2023-07-22T04:58:05;4.97;;;2.97;;
12296;SDS011;6211;49.124;9.152;2023-07-22T05:00:33;4.00;;;3.22;;
12296;SDS011;6211;49.124;9.152;2023-07-22T05:03:00;4.05;;;3.17;;
12296;SDS011;6211;49.124;9.152;2023-07-22T05:05:29;3.53;;;3.03;;
12296;SDS011;6211;49.124;9.152;2023-07-22T05:07:56;3.72;;;3.10;;
12296;SDS011;6211;49.124;9.152;2023-07-22T05:10:23;3.40;;;2.63;;
12296;SDS011;6211;49.124;9.152;2023-07-22T05:12:50;3.97;;;2.88;;
12296;SDS011;6211;49.124;9.152;2023-07-22T05:15:17;4.43;;;3.20;;
12296;SDS011;6211;49.124;9.152;2023-07-22T05:17:45;2.78;;;2.53;;
12296;SDS011;6211;49.124;9.152;2023-07-22T05:20:12;3.35;;;3.05;;
12296;SDS011;6211;49.124;9.152;2023-07-22T05:22:41;3.80;;;2.90;;
12296;SDS011;6211;49.124;9.152;2023-07-22T05:25:08;3.08;;;2.72;;
12296;SDS011;6211;49.124;9.152;2023-07-22T05:27:35;2.63;;;2.42;;
12296;SDS011;6211;49.124;9.152;2023-07-22T05:30:03;2.92;;;2.65;;
12296;SDS011;6211;49.124;9.152;2023-07-22T05:32:30;3.33;;;3.03;;
12296;SDS011;6211;49.124;9.152;2023-07-22T05:34:57;4.65;;;2.90;;
12296;SDS011;6211;49.124;9.152;2023-07-22T05:37:25;6.78;;;3.50;;
12296;SDS011;6211;49.124;9.152;2023-07-22T05:39:53;3.83;;;3.42;;
12296;SDS011;6211;49.124;9.152;2023-07-22T05:42:20;3.30;;;2.90;;
12296;SDS011;6211;49.124;9.152;2023-07-22T05:44:47;2.90;;;2.70;;
12296;SDS011;6211;49.124;9.152;2023-07-22T05:47:14;3.67;;;2.58;;
12296;SDS011;6211;49.124;9.152;2023-07-22T05:49:42;3.05;;;2.72;;
12296;SDS011;6211;49.124;9.152;2023-07-22T05:52:09;3.45;;;2.70;;
12296;SDS011;6211;49.124;9.152;2023-07-22T05:54:36;2.60;;;2.13;;
12296;SDS011;6211;49.124;9.152;2023-07-22T05:57:05;3.47;;;2.10;;
12296;SDS011;6211;49.124;9.152;2023-07-22T05:59:32;3.65;;;2.20;;
12296;SDS011;6211;49.124;9.152;2023-07-22T06:02:01;2.53;;;2.28;;
12296;SDS011;6211;49.124;9.152;2023-07-22T06:04:28;2.33;;;2.10;;
12296;SDS011;6211;49.124;9.152;2023-07-22T06:06:55;2.45;;;2.00;;
12296;SDS011;6211;49.124;9.152;2023-07-22T06:09:22;2.17;;;1.98;;
12296;SDS011;6211;49.124;9.152;2023-07-22T06:11:50;1.80;;;1.70;;
12296;SDS011;6211;49.124;9.152;2023-07-22T06:14:18;7.05;;;1.92;;
12296;SDS011;6211;49.124;9.152;2023-07-22T06:16:45;3.38;;;2.13;;
12296;SDS011;6211;49.124;9.152;2023-07-22T06:19:12;2.10;;;1.80;;
12296;SDS011;6211;49.124;9.152;2023-07-22T06:21:39;2.45;;;1.85;;
12296;SDS011;6211;49.124;9.152;2023-07-22T06:24:06;2.30;;;2.10;;
12296;SDS011;6211;49.124;9.152;2023-07-22T06:26:33;2.25;;;1.88;;
12296;SDS011;6211;49.124;9.152;2023-07-22T06:29:01;2.30;;;1.85;;
12296;SDS011;6211;49.124;9.152;2023-07-22T06:31:30;2.78;;;1.60;;
12296;SDS011;6211;49.124;9.152;2023-07-22T06:33:57;2.30;;;1.73;;
12296;SDS011;6211;49.124;9.152;2023-07-22T06:36:25;3.58;;;2.13;;
12296;SDS011;6211;49.124;9.152;2023-07-22T06:38:52;2.40;;;2.00;;
12296;SDS011;6211;49.124;9.152;2023-07-22T06:41:19;2.72;;;1.85;;
12296;SDS011;6211;49.124;9.152;2023-07-22T06:43:49;2.53;;;2.00;;
12296;SDS011;6211;49.124;9.152;2023-07-22T06:46:16;2.30;;;1.90;;
12296;SDS011;6211;49.124;9.152;2023-07-22T06:48:45;2.05;;;1.80;;
12296;SDS011;6211;49.124;9.152;2023-07-22T06:51:12;2.60;;;1.67;;
12296;SDS011;6211;49.124;9.152;2023-07-22T06:53:39;3.50;;;1.60;;
12296;SDS011;6211;49.124;9.152;2023-07-22T06:56:06;1.45;;;1.35;;
12296;SDS011;6211;49.124;9.152;2023-07-22T06:58:33;2.97;;;1.70;;
12296;SDS011;6211;49.124;9.152;2023-07-22T07:01:01;3.13;;;1.67;;
12296;SDS011;6211;49.124;9.152;2023-07-22T07:03:28;2.55;;;1.75;;
12296;SDS011;6211;49.124;9.152;2023-07-22T07:05:56;3.97;;;1.73;;
12296;SDS011;6211;49.124;9.152;2023-07-22T07:08:24;2.35;;;1.63;;
12296;SDS011;6211;49.124;9.152;2023-07-22T07:10:51;2.20;;;1.70;;
12296;SDS011;6211;49.124;9.152;2023-07-22T07:13:18;1.50;;;1.33;;
12296;SDS011;6211;49.124;9.152;2023-07-22T07:15:46;1.67;;;1.58;;
12296;SDS011;6211;49.124;9.152;2023-07-22T07:18:14;2.28;;;1.85;;
12296;SDS011;6211;49.124;9.152;2023-07-22T07:20:41;1.48;;;1.38;;
12296;SDS011;6211;49.124;9.152;2023-07-22T07:23:10;2.45;;;1.73;;
12296;SDS011;6211;49.124;9.152;2023-07-22T07:25:37;4.20;;;1.75;;
12296;SDS011;6211;49.124;9.152;2023-07-22T07:28:04;2.80;;;1.73;;
12296;SDS011;6211;49.124;9.152;2023-07-22T07:30:32;2.75;;;1.95;;
12296;SDS011;6211;49.124;9.152;2023-07-22T07:32:59;1.90;;;1.50;;
12296;SDS011;6211;49.124;9.152;2023-07-22T07:35:26;2.78;;;1.80;;
12296;SDS011;6211;49.124;9.152;2023-07-22T07:37:53;1.73;;;1.63;;
12296;SDS011;6211;49.124;9.152;2023-07-22T07:40:21;1.77;;;1.60;;
12296;SDS011;6211;49.124;9.152;2023-07-22T07:42:48;12.50;;;9.32;;
12296;SDS011;6211;49.124;9.152;2023-07-22T07:45:15;3.67;;;1.75;;
12296;SDS011;6211;49.124;9.152;2023-07-22T07:47:43;2.90;;;1.52;;
12296;SDS011;6211;49.124;9.152;2023-07-22T07:50:10;3.45;;;1.42;;
12296;SDS011;6211;49.124;9.152;2023-07-22T07:52:37;4.63;;;1.70;;
12296;SDS011;6211;49.124;9.152;2023-07-22T07:55:05;2.33;;;1.60;;
12296;SDS011;6211;49.124;9.152;2023-07-22T07:57:33;1.88;;;1.35;;
12296;SDS011;6211;49.124;9.152;2023-07-22T08:00:00;1.83;;;1.50;;
12296;SDS011;6211;49.124;9.152;2023-07-22T08:02:28;1.70;;;1.60;;
12296;SDS011;6211;49.124;9.152;2023-07-22T08:04:55;1.42;;;1.17;;
12296;SDS011;6211;49.124;9.152;2023-07-22T08:07:23;1.90;;;1.30;;
12296;SDS011;6211;49.124;9.152;2023-07-22T08:09:50;1.40;;;1.30;;
12296;SDS011;6211;49.124;9.152;2023-07-22T08:12:17;1.85;;;1.50;;
12296;SDS011;6211;49.124;9.152;2023-07-22T08:14:46;1.80;;;1.70;;
12296;SDS011;6211;49.124;9.152;2023-07-22T08:17:13;2.72;;;1.77;;
12296;SDS011;6211;49.124;9.152;2023-07-22T08:19:40;2.40;;;1.60;;
12296;SDS011;6211;49.124;9.152;2023-07-22T08:22:07;2.90;;;1.30;;
12296;SDS011;6211;49.124;9.152;2023-07-22T08:24:34;2.40;;;1.63;;
12296;SDS011;6211;49.124;9.152;2023-07-22T08:27:02;1.88;;;1.50;;
12296;SDS011;6211;49.124;9.152;2023-07-22T08:29:29;2.40;;;1.70;;
12296;SDS011;6211;49.124;9.152;2023-07-22T08:31:57;2.08;;;1.77;;
12296;SDS011;6211;49.124;9.152;2023-07-22T08:34:25;2.05;;;1.52;;
12296;SDS011;6211;49.124;9.152;2023-07-22T08:36:52;1.38;;;1.27;;
12296;SDS011;6211;49.124;9.152;2023-07-22T08:39:19;1.92;;;1.25;;
12296;SDS011;6211;49.124;9.152;2023-07-22T08:41:48;1.77;;;1.42;;
12296;SDS011;6211;49.124;9.152;2023-07-22T08:44:16;2.00;;;1.60;;
12296;SDS011;6211;49.124;9.152;2023-07-22T08:46:45;2.05;;;1.38;;
12296;SDS011;6211;49.124;9.152;2023-07-22T08:49:14;2.83;;;1.60;;
12296;SDS011;6211;49.124;9.152;2023-07-22T08:51:42;3.50;;;1.40;;
12296;SDS011;6211;49.124;9.152;2023-07-22T08:54:10;2.33;;;1.30;;
12296;SDS011;6211;49.124;9.152;2023-07-22T08:56:37;1.90;;;1.50;;
12296;SDS011;6211;49.124;9.152;2023-07-22T08:59:05;1.65;;;1.55;;
12296;SDS011;6211;49.124;9.152;2023-07-22T09:01:32;2.15;;;1.45;;
12296;SDS011;6211;49.124;9.152;2023-07-22T09:04:00;1.60;;;1.30;;
12296;SDS011;6211;49.124;9.152;2023-07-22T09:06:29;1.40;;;1.30;;
12296;SDS011;6211;49.124;9.152;2023-07-22T09:08:57;2.22;;;1.40;;
12296;SDS011;6211;49.124;9.152;2023-07-22T09:11:25;1.48;;;1.38;;
12296;SDS011;6211;49.124;9.152;2023-07-22T09:13:52;4.40;;;1.45;;
12296;SDS011;6211;49.124;9.152;2023-07-22T09:16:20;2.20;;;1.25;;
12296;SDS011;6211;49.124;9.152;2023-07-22T09:18:48;2.05;;;1.52;;
12296;SDS011;6211;49.124;9.152;2023-07-22T09:21:15;2.53;;;1.60;;
12296;SDS011;6211;49.124;9.152;2023-07-22T09:23:43;1.30;;;1.20;;
12296;SDS011;6211;49.124;9.152;2023-07-22T09:26:11;1.55;;;1.30;;
12296;SDS011;6211;49.124;9.152;2023-07-22T09:28:51;1.55;;;1.27;;
12296;SDS011;6211;49.124;9.152;2023-07-22T09:31:20;1.40;;;1.30;;
12296;SDS011;6211;49.124;9.152;2023-07-22T09:33:47;1.50;;;1.23;;
12296;SDS011;6211;49.124;9.152;2023-07-22T09:36:14;2.15;;;1.60;;
12296;SDS011;6211;49.124;9.152;2023-07-22T09:38:41;1.95;;;1.42;;
12296;SDS011;6211;49.124;9.152;2023-07-22T09:41:10;1.55;;;1.40;;
12296;SDS011;6211;49.124;9.152;2023-07-22T09:43:38;1.75;;;1.20;;
12296;SDS011;6211;49.124;9.152;2023-07-22T09:46:06;1.90;;;1.42;;
12296;SDS011;6211;49.124;9.152;2023-07-22T09:48:39;1.45;;;1.13;;
12296;SDS011;6211;49.124;9.152;2023-07-22T09:51:10;1.45;;;1.25;;
12296;SDS011;6211;49.124;9.152;2023-07-22T09:53:38;1.58;;;1.25;;
12296;SDS011;6211;49.124;9.152;2023-07-22T09:56:05;1.15;;;1.02;;
12296;SDS011;6211;49.124;9.152;2023-07-22T09:58:33;1.92;;;1.00;;
12296;SDS011;6211;49.124;9.152;2023-07-22T10:01:01;1.25;;;1.00;;
12296;SDS011;6211;49.124;9.152;2023-07-22T10:03:28;0.70;;;0.70;;
12296;SDS011;6211;49.124;9.152;2023-07-22T10:05:56;2.63;;;1.10;;
12296;SDS011;6211;49.124;9.152;2023-07-22T10:08:24;1.63;;;0.88;;
12296;SDS011;6211;49.124;9.152;2023-07-22T10:10:53;0.80;;;0.80;;
12296;SDS011;6211;49.124;9.152;2023-07-22T10:13:22;1.10;;;1.00;;
12296;SDS011;6211;49.124;9.152;2023-07-22T10:15:52;1.02;;;1.00;;
12296;SDS011;6211;49.124;9.152;2023-07-22T10:18:20;0.80;;;0.80;;
12296;SDS011;6211;49.124;9.152;2023-07-22T10:20:48;1.10;;;0.98;;
12296;SDS011;6211;49.124;9.152;2023-07-22T10:23:15;0.95;;;0.80;;
12296;SDS011;6211;49.124;9.152;2023-07-22T10:25:42;1.02;;;0.90;;
12296;SDS011;6211;49.124;9.152;2023-07-22T10:28:11;1.00;;;0.90;;
12296;SDS011;6211;49.124;9.152;2023-07-22T10:30:39;1.45;;;1.10;;
12296;SDS011;6211;49.124;9.152;2023-07-22T10:33:09;1.00;;;0.82;;
12296;SDS011;6211;49.124;9.152;2023-07-22T10:35:40;1.48;;;0.98;;
12296;SDS011;6211;49.124;9.152;2023-07-22T10:38:08;1.85;;;1.10;;
12296;SDS011;6211;49.124;9.152;2023-07-22T10:40:44;2.75;;;0.93;;
12296;SDS011;6211;49.124;9.152;2023-07-22T10:43:11;1.75;;;1.00;;
12296;SDS011;6211;49.124;9.152;2023-07-22T10:45:42;1.00;;;0.90;;
12296;SDS011;6211;49.124;9.152;2023-07-22T10:48:11;1.20;;;0.73;;
12296;SDS011;6211;49.124;9.152;2023-07-22T10:50:39;1.20;;;1.10;;
12296;SDS011;6211;49.124;9.152;2023-07-22T10:53:06;1.38;;;0.90;;
12296;SDS011;6211;49.124;9.152;2023-07-22T10:58:17;0.90;;;0.90;;
12296;SDS011;6211;49.124;9.152;2023-07-22T11:00:46;1.27;;;0.98;;
12296;SDS011;6211;49.124;9.152;2023-07-22T11:03:15;1.00;;;0.90;;
12296;SDS011;6211;49.124;9.152;2023-07-22T11:05:50;1.10;;;1.00;;
12296;SDS011;6211;49.124;9.152;2023-07-22T11:11:00;0.82;;;0.82;;
12296;SDS011;6211;49.124;9.152;2023-07-22T11:13:28;4.43;;;1.10;;
12296;SDS011;6211;49.124;9.152;2023-07-22T11:15:57;1.10;;;0.95;;
12296;SDS011;6211;49.124;9.152;2023-07-22T11:18:36;1.55;;;1.45;;
12296;SDS011;6211;49.124;9.152;2023-07-22T11:21:06;1.02;;;0.93;;
12296;SDS011;6211;49.124;9.152;2023-07-22T11:23:34;1.50;;;1.13;;
12296;SDS011;6211;49.124;9.152;2023-07-22T11:26:01;1.20;;;1.05;;
12296;SDS011;6211;49.124;9.152;2023-07-22T11:28:29;2.28;;;1.00;;
12296;SDS011;6211;49.124;9.152;2023-07-22T11:30:56;2.72;;;1.00;;
12296;SDS011;6211;49.124;9.152;2023-07-22T11:33:23;1.15;;;1.05;;
12296;SDS011;6211;49.124;9.152;2023-07-22T11:35:52;1.35;;;1.15;;
12296;SDS011;6211;49.124;9.152;2023-07-22T11:38:19;1.65;;;1.00;;
12296;SDS011;6211;49.124;9.152;2023-07-22T11:40:46;0.90;;;0.90;;
12296;SDS011;6211;49.124;9.152;2023-07-22T11:43:14;1.05;;;0.95;;
12296;SDS011;6211;49.124;9.152;2023-07-22T11:45:41;1.38;;;1.27;;
12296;SDS011;6211;49.124;9.152;2023-07-22T11:48:12;2.40;;;0.90;;
12296;SDS011;6211;49.124;9.152;2023-07-22T11:50:39;0.95;;;0.93;;
12296;SDS011;6211;49.124;9.152;2023-07-22T11:53:08;1.92;;;0.95;;
12296;SDS011;6211;49.124;9.152;2023-07-22T11:55:35;1.30;;;1.20;;
12296;SDS011;6211;49.124;9.152;2023-07-22T11:58:02;1.17;;;0.95;;
12296;SDS011;6211;49.124;9.152;2023-07-22T12:00:29;1.20;;;0.93;;
12296;SDS011;6211;49.124;9.152;2023-07-22T12:02:56;1.02;;;1.00;;
12296;SDS011;6211;49.124;9.152;2023-07-22T12:05:24;1.88;;;1.23;;
12296;SDS011;6211;49.124;9.152;2023-07-22T12:07:51;1.23;;;1.08;;
12296;SDS011;6211;49.124;9.152;2023-07-22T12:10:19;1.17;;;1.08;;
12296;SDS011;6211;49.124;9.152;2023-07-22T12:12:46;1.40;;;1.05;;
12296;SDS011;6211;49.124;9.152;2023-07-22T12:15:17;1.25;;;1.15;;
12296;SDS011;6211;49.124;9.152;2023-07-22T12:17:45;0.90;;;0.85;;
12296;SDS011;6211;49.124;9.152;2023-07-22T12:20:12;1.63;;;1.10;;
12296;SDS011;6211;49.124;9.152;2023-07-22T12:22:40;1.67;;;1.58;;
12296;SDS011;6211;49.124;9.152;2023-07-22T12:25:07;1.50;;;1.40;;
12296;SDS011;6211;49.124;9.152;2023-07-22T12:27:36;1.15;;;1.05;;
12296;SDS011;6211;49.124;9.152;2023-07-22T12:30:04;1.45;;;1.15;;
12296;SDS011;6211;49.124;9.152;2023-07-22T12:32:32;1.20;;;1.10;;
12296;SDS011;6211;49.124;9.152;2023-07-22T12:34:59;2.15;;;1.27;;
12296;SDS011;6211;49.124;9.152;2023-07-22T12:37:28;1.48;;;1.38;;
12296;SDS011;6211;49.124;9.152;2023-07-22T12:39:56;1.25;;;1.15;;
12296;SDS011;6211;49.124;9.152;2023-07-22T12:42:23;1.10;;;1.00;;
12296;SDS011;6211;49.124;9.152;2023-07-22T12:44:52;1.63;;;1.38;;
12296;SDS011;6211;49.124;9.152;2023-07-22T12:47:19;1.60;;;1.00;;
12296;SDS011;6211;49.124;9.152;2023-07-22T12:49:47;1.20;;;1.10;;
12296;SDS011;6211;49.124;9.152;2023-07-22T12:52:15;1.13;;;1.05;;
12296;SDS011;6211;49.124;9.152;2023-07-22T12:54:47;1.10;;;0.90;;
12296;SDS011;6211;49.124;9.152;2023-07-22T12:57:15;1.38;;;1.00;;
12296;SDS011;6211;49.124;9.152;2023-07-22T12:59:44;2.25;;;1.08;;
12296;SDS011;6211;49.124;9.152;2023-07-22T13:02:12;2.50;;;0.93;;
12296;SDS011;6211;49.124;9.152;2023-07-22T13:04:40;1.50;;;1.27;;
12296;SDS011;6211;49.124;9.152;2023-07-22T13:07:09;1.58;;;1.10;;
12296;SDS011;6211;49.124;9.152;2023-07-22T13:09:36;1.58;;;1.23;;
12296;SDS011;6211;49.124;9.152;2023-07-22T13:12:03;2.13;;;1.20;;
12296;SDS011;6211;49.124;9.152;2023-07-22T13:14:30;1.48;;;1.30;;
12296;SDS011;6211;49.124;9.152;2023-07-22T13:16:57;1.40;;;1.30;;
12296;SDS011;6211;49.124;9.152;2023-07-22T13:19:26;1.30;;;1.20;;
12296;SDS011;6211;49.124;9.152;2023-07-22T13:21:53;1.75;;;1.10;;
12296;SDS011;6211;49.124;9.152;2023-07-22T13:24:20;1.48;;;1.38;;
12296;SDS011;6211;49.124;9.152;2023-07-22T13:26:48;1.10;;;1.00;;
12296;SDS011;6211;49.124;9.152;2023-07-22T13:29:15;1.30;;;1.20;;
12296;SDS011;6211;49.124;9.152;2023-07-22T13:31:42;1.60;;;1.20;;
12296;SDS011;6211;49.124;9.152;2023-07-22T13:34:09;1.15;;;1.05;;
12296;SDS011;6211;49.124;9.152;2023-07-22T13:36:37;1.63;;;1.20;;
12296;SDS011;6211;49.124;9.152;2023-07-22T13:39:04;1.40;;;1.30;;
12296;SDS011;6211;49.124;9.152;2023-07-22T13:41:32;1.27;;;1.17;;
12296;SDS011;6211;49.124;9.152;2023-07-22T13:43:59;2.10;;;1.25;;
12296;SDS011;6211;49.124;9.152;2023-07-22T13:46:26;1.52;;;1.42;;
12296;SDS011;6211;49.124;9.152;2023-07-22T13:48:53;1.70;;;1.15;;
12296;SDS011;6211;49.124;9.152;2023-07-22T13:51:20;2.88;;;1.48;;
12296;SDS011;6211;49.124;9.152;2023-07-22T13:53:48;1.20;;;1.10;;
12296;SDS011;6211;49.124;9.152;2023-07-22T13:56:17;1.77;;;1.23;;
12296;SDS011;6211;49.124;9.152;2023-07-22T13:58:44;1.27;;;0.90;;
12296;SDS011;6211;49.124;9.152;2023-07-22T14:01:11;1.30;;;1.20;;
12296;SDS011;6211;49.124;9.152;2023-07-22T14:03:38;2.08;;;1.30;;
12296;SDS011;6211;49.124;9.152;2023-07-22T14:06:05;1.80;;;1.33;;
12296;SDS011;6211;49.124;9.152;2023-07-22T14:08:33;1.73;;;1.40;;
12296;SDS011;6211;49.124;9.152;2023-07-22T14:11:01;1.20;;;1.10;;
12296;SDS011;6211;49.124;9.152;2023-07-22T14:13:28;1.63;;;1.15;;
12296;SDS011;6211;49.124;9.152;2023-07-22T14:15:55;1.60;;;1.38;;
12296;SDS011;6211;49.124;9.152;2023-07-22T14:18:23;1.48;;;1.38;;
12296;SDS011;6211;49.124;9.152;2023-07-22T14:20:50;1.27;;;1.08;;
12296;SDS011;6211;49.124;9.152;2023-07-22T14:23:17;1.15;;;0.88;;
12296;SDS011;6211;49.124;9.152;2023-07-22T14:25:44;3.42;;;1.40;;
12296;SDS011;6211;49.124;9.152;2023-07-22T14:28:12;1.38;;;1.10;;
12296;SDS011;6211;49.124;9.152;2023-07-22T14:30:39;1.40;;;1.30;;
12296;SDS011;6211;49.124;9.152;2023-07-22T14:33:06;1.80;;;1.58;;
12296;SDS011;6211;49.124;9.152;2023-07-22T14:35:33;3.33;;;2.00;;
12296;SDS011;6211;49.124;9.152;2023-07-22T14:38:01;1.38;;;1.10;;
12296;SDS011;6211;49.124;9.152;2023-07-22T14:40:28;2.33;;;1.30;;
12296;SDS011;6211;49.124;9.152;2023-07-22T14:42:55;0.93;;;0.93;;
12296;SDS011;6211;49.124;9.152;2023-07-22T14:45:24;2.45;;;1.40;;
12296;SDS011;6211;49.124;9.152;2023-07-22T14:47:51;1.50;;;1.40;;
12296;SDS011;6211;49.124;9.152;2023-07-22T14:50:18;1.35;;;1.25;;
12296;SDS011;6211;49.124;9.152;2023-07-22T14:52:45;1.80;;;1.40;;
12296;SDS011;6211;49.124;9.152;2023-07-22T14:55:12;1.38;;;1.25;;
12296;SDS011;6211;49.124;9.152;2023-07-22T14:57:39;1.35;;;1.20;;
12296;SDS011;6211;49.124;9.152;2023-07-22T15:00:06;1.38;;;1.20;;
12296;SDS011;6211;49.124;9.152;2023-07-22T15:02:36;1.85;;;1.38;;
12296;SDS011;6211;49.124;9.152;2023-07-22T15:05:04;1.40;;;1.30;;
12296;SDS011;6211;49.124;9.152;2023-07-22T15:07:31;1.67;;;1.08;;
12296;SDS011;6211;49.124;9.152;2023-07-22T15:09:58;1.30;;;1.20;;